sensor_id;sensor_type;location;lat;lon;timestamp;P1;durP1;ratioP1;P2;durP2;ratioP2
52868;SDS011;39100;53.480;6.158;2023-06-22T00:00:40;5.75;;;3.60;;
52868;SDS011;39100;53.480;6.158;2023-06-22T00:03:07;5.10;;;3.58;;
52868;SDS011;39100;53.480;6.158;2023-06-22T00:05:33;5.95;;;3.78;;
52868;SDS011;39100;53.480;6.158;2023-06-22T00:08:01;4.43;;;3.33;;
52868;SDS011;39100;53.480;6.158;2023-06-22T00:10:28;7.53;;;4.28;;
52868;SDS011;39100;53.480;6.158;2023-06-22T00:12:53;4.60;;;3.20;;
52868;SDS011;39100;53.480;6.158;2023-06-22T00:15:19;5.25;;;3.53;;
52868;SDS011;39100;53.480;6.158;2023-06-22T00:17:45;5.93;;;3.22;;
52868;SDS011;39100;53.480;6.158;2023-06-22T00:20:10;4.93;;;3.20;;
52868;SDS011;39100;53.480;6.158;2023-06-22T00:22:36;4.70;;;3.20;;
52868;SDS011;39100;53.480;6.158;2023-06-22T00:25:05;4.90;;;3.58;;
52868;SDS011;39100;53.480;6.158;2023-06-22T00:27:32;4.28;;;3.33;;
52868;SDS011;39100;53.480;6.158;2023-06-22T00:29:57;3.80;;;3.17;;
52868;SDS011;39100;53.480;6.158;2023-06-22T00:32:23;7.03;;;3.22;;
52868;SDS011;39100;53.480;6.158;2023-06-22T00:34:48;4.60;;;3.30;;
52868;SDS011;39100;53.480;6.158;2023-06-22T00:37:15;4.45;;;3.55;;
52868;SDS011;39100;53.480;6.158;2023-06-22T00:39:42;4.22;;;3.45;;
52868;SDS011;39100;53.480;6.158;2023-06-22T00:42:08;6.18;;;3.70;;
52868;SDS011;39100;53.480;6.158;2023-06-22T00:44:34;5.28;;;3.53;;
52868;SDS011;39100;53.480;6.158;2023-06-22T00:47:01;5.60;;;3.60;;
52868;SDS011;39100;53.480;6.158;2023-06-22T00:49:27;6.07;;;4.10;;
52868;SDS011;39100;53.480;6.158;2023-06-22T00:51:53;5.20;;;3.88;;
52868;SDS011;39100;53.480;6.158;2023-06-22T00:54:19;5.82;;;4.03;;
52868;SDS011;39100;53.480;6.158;2023-06-22T00:56:55;6.55;;;3.83;;
52868;SDS011;39100;53.480;6.158;2023-06-22T00:59:23;6.10;;;4.13;;
52868;SDS011;39100;53.480;6.158;2023-06-22T01:01:49;6.00;;;4.57;;
52868;SDS011;39100;53.480;6.158;2023-06-22T01:04:15;6.65;;;4.68;;
52868;SDS011;39100;53.480;6.158;2023-06-22T01:06:54;7.60;;;5.22;;
52868;SDS011;39100;53.480;6.158;2023-06-22T01:09:27;7.05;;;4.90;;
52868;SDS011;39100;53.480;6.158;2023-06-22T01:12:02;5.53;;;3.95;;
52868;SDS011;39100;53.480;6.158;2023-06-22T01:17:44;5.10;;;3.75;;
52868;SDS011;39100;53.480;6.158;2023-06-22T01:20:13;7.15;;;4.93;;
52868;SDS011;39100;53.480;6.158;2023-06-22T01:23:26;8.00;;;6.15;;
52868;SDS011;39100;53.480;6.158;2023-06-22T01:25:59;8.27;;;5.22;;
52868;SDS011;39100;53.480;6.158;2023-06-22T01:28:36;6.97;;;4.78;;
52868;SDS011;39100;53.480;6.158;2023-06-22T01:31:09;6.68;;;4.80;;
52868;SDS011;39100;53.480;6.158;2023-06-22T01:33:39;5.13;;;3.63;;
52868;SDS011;39100;53.480;6.158;2023-06-22T01:36:08;5.88;;;4.40;;
52868;SDS011;39100;53.480;6.158;2023-06-22T01:38:34;6.07;;;4.43;;
52868;SDS011;39100;53.480;6.158;2023-06-22T01:41:01;5.45;;;4.03;;
52868;SDS011;39100;53.480;6.158;2023-06-22T01:43:28;5.68;;;4.70;;
52868;SDS011;39100;53.480;6.158;2023-06-22T01:45:54;7.65;;;4.65;;
52868;SDS011;39100;53.480;6.158;2023-06-22T01:48:21;8.15;;;5.82;;
52868;SDS011;39100;53.480;6.158;2023-06-22T01:50:47;6.90;;;5.13;;
52868;SDS011;39100;53.480;6.158;2023-06-22T01:53:13;6.47;;;4.50;;
52868;SDS011;39100;53.480;6.158;2023-06-22T01:55:39;5.82;;;3.80;;
52868;SDS011;39100;53.480;6.158;2023-06-22T01:58:05;5.68;;;3.65;;
52868;SDS011;39100;53.480;6.158;2023-06-22T02:00:31;4.95;;;3.42;;
52868;SDS011;39100;53.480;6.158;2023-06-22T02:03:02;4.57;;;3.70;;
52868;SDS011;39100;53.480;6.158;2023-06-22T02:05:37;3.45;;;3.00;;
52868;SDS011;39100;53.480;6.158;2023-06-22T02:08:17;4.70;;;3.45;;
52868;SDS011;39100;53.480;6.158;2023-06-22T02:10:49;5.30;;;3.75;;
52868;SDS011;39100;53.480;6.158;2023-06-22T02:13:17;3.78;;;2.92;;
52868;SDS011;39100;53.480;6.158;2023-06-22T02:15:43;2.47;;;2.10;;
52868;SDS011;39100;53.480;6.158;2023-06-22T02:18:09;4.05;;;3.15;;
52868;SDS011;39100;53.480;6.158;2023-06-22T02:20:37;6.60;;;4.28;;
52868;SDS011;39100;53.480;6.158;2023-06-22T02:23:04;3.63;;;3.03;;
52868;SDS011;39100;53.480;6.158;2023-06-22T02:25:31;4.13;;;3.00;;
52868;SDS011;39100;53.480;6.158;2023-06-22T02:27:57;3.60;;;2.70;;
52868;SDS011;39100;53.480;6.158;2023-06-22T02:30:22;3.28;;;2.20;;
52868;SDS011;39100;53.480;6.158;2023-06-22T02:32:48;5.70;;;3.35;;
52868;SDS011;39100;53.480;6.158;2023-06-22T02:35:14;4.72;;;3.95;;
52868;SDS011;39100;53.480;6.158;2023-06-22T02:37:40;5.65;;;3.92;;
52868;SDS011;39100;53.480;6.158;2023-06-22T02:40:09;5.63;;;3.83;;
52868;SDS011;39100;53.480;6.158;2023-06-22T02:42:35;5.75;;;4.10;;
52868;SDS011;39100;53.480;6.158;2023-06-22T02:45:04;5.05;;;3.05;;
52868;SDS011;39100;53.480;6.158;2023-06-22T02:47:30;4.40;;;3.67;;
52868;SDS011;39100;53.480;6.158;2023-06-22T02:49:56;3.47;;;2.90;;
52868;SDS011;39100;53.480;6.158;2023-06-22T02:52:22;3.20;;;2.65;;
52868;SDS011;39100;53.480;6.158;2023-06-22T02:54:47;4.40;;;3.42;;
52868;SDS011;39100;53.480;6.158;2023-06-22T02:57:13;5.13;;;3.47;;
52868;SDS011;39100;53.480;6.158;2023-06-22T02:59:39;3.88;;;2.92;;
52868;SDS011;39100;53.480;6.158;2023-06-22T03:02:07;4.90;;;3.50;;
52868;SDS011;39100;53.480;6.158;2023-06-22T03:04:33;4.18;;;3.40;;
52868;SDS011;39100;53.480;6.158;2023-06-22T03:06:59;5.97;;;3.50;;
52868;SDS011;39100;53.480;6.158;2023-06-22T03:09:26;5.05;;;3.92;;
52868;SDS011;39100;53.480;6.158;2023-06-22T03:11:53;6.13;;;3.72;;
52868;SDS011;39100;53.480;6.158;2023-06-22T03:14:19;4.65;;;3.42;;
52868;SDS011;39100;53.480;6.158;2023-06-22T03:16:45;4.57;;;3.60;;
52868;SDS011;39100;53.480;6.158;2023-06-22T03:19:10;5.32;;;3.55;;
52868;SDS011;39100;53.480;6.158;2023-06-22T03:21:37;5.00;;;3.60;;
52868;SDS011;39100;53.480;6.158;2023-06-22T03:24:06;2.58;;;2.28;;
52868;SDS011;39100;53.480;6.158;2023-06-22T03:26:32;4.72;;;3.13;;
52868;SDS011;39100;53.480;6.158;2023-06-22T03:28:59;3.97;;;3.10;;
52868;SDS011;39100;53.480;6.158;2023-06-22T03:31:25;6.75;;;4.85;;
52868;SDS011;39100;53.480;6.158;2023-06-22T03:33:50;7.13;;;4.78;;
52868;SDS011;39100;53.480;6.158;2023-06-22T03:36:16;6.55;;;4.65;;
52868;SDS011;39100;53.480;6.158;2023-06-22T03:38:49;6.72;;;4.13;;
52868;SDS011;39100;53.480;6.158;2023-06-22T03:41:15;4.63;;;3.38;;
52868;SDS011;39100;53.480;6.158;2023-06-22T03:43:41;4.68;;;3.38;;
52868;SDS011;39100;53.480;6.158;2023-06-22T03:46:06;4.68;;;3.83;;
52868;SDS011;39100;53.480;6.158;2023-06-22T03:48:32;5.50;;;3.30;;
52868;SDS011;39100;53.480;6.158;2023-06-22T03:51:01;3.97;;;3.00;;
52868;SDS011;39100;53.480;6.158;2023-06-22T03:53:27;3.33;;;2.63;;
52868;SDS011;39100;53.480;6.158;2023-06-22T03:55:53;4.75;;;3.28;;
52868;SDS011;39100;53.480;6.158;2023-06-22T03:58:19;4.82;;;3.75;;
52868;SDS011;39100;53.480;6.158;2023-06-22T04:00:46;3.20;;;2.67;;
52868;SDS011;39100;53.480;6.158;2023-06-22T04:03:13;3.35;;;1.95;;
52868;SDS011;39100;53.480;6.158;2023-06-22T04:05:39;2.17;;;1.70;;
52868;SDS011;39100;53.480;6.158;2023-06-22T04:08:05;2.05;;;1.60;;
52868;SDS011;39100;53.480;6.158;2023-06-22T04:10:31;2.35;;;1.65;;
52868;SDS011;39100;53.480;6.158;2023-06-22T04:12:57;2.63;;;2.10;;
52868;SDS011;39100;53.480;6.158;2023-06-22T04:15:22;3.85;;;2.30;;
52868;SDS011;39100;53.480;6.158;2023-06-22T04:17:48;3.28;;;2.60;;
52868;SDS011;39100;53.480;6.158;2023-06-22T04:20:13;3.50;;;2.65;;
52868;SDS011;39100;53.480;6.158;2023-06-22T04:22:39;4.70;;;2.83;;
52868;SDS011;39100;53.480;6.158;2023-06-22T04:25:05;3.88;;;2.95;;
52868;SDS011;39100;53.480;6.158;2023-06-22T04:27:32;3.63;;;2.75;;
52868;SDS011;39100;53.480;6.158;2023-06-22T04:30:02;5.05;;;3.85;;
52868;SDS011;39100;53.480;6.158;2023-06-22T04:32:28;6.05;;;3.78;;
52868;SDS011;39100;53.480;6.158;2023-06-22T04:34:54;5.50;;;4.20;;
52868;SDS011;39100;53.480;6.158;2023-06-22T04:37:19;9.60;;;5.28;;
52868;SDS011;39100;53.480;6.158;2023-06-22T04:39:48;8.75;;;5.10;;
52868;SDS011;39100;53.480;6.158;2023-06-22T04:42:14;6.43;;;4.90;;
52868;SDS011;39100;53.480;6.158;2023-06-22T04:44:40;6.30;;;4.53;;
52868;SDS011;39100;53.480;6.158;2023-06-22T04:47:06;4.90;;;3.83;;
52868;SDS011;39100;53.480;6.158;2023-06-22T04:49:33;5.20;;;3.45;;
52868;SDS011;39100;53.480;6.158;2023-06-22T04:52:03;5.57;;;3.95;;
52868;SDS011;39100;53.480;6.158;2023-06-22T04:54:29;5.65;;;4.00;;
52868;SDS011;39100;53.480;6.158;2023-06-22T04:56:57;6.10;;;4.20;;
52868;SDS011;39100;53.480;6.158;2023-06-22T04:59:24;6.18;;;4.15;;
52868;SDS011;39100;53.480;6.158;2023-06-22T05:01:57;4.68;;;3.20;;
52868;SDS011;39100;53.480;6.158;2023-06-22T05:04:25;3.15;;;2.33;;
52868;SDS011;39100;53.480;6.158;2023-06-22T05:07:03;4.00;;;2.75;;
52868;SDS011;39100;53.480;6.158;2023-06-22T05:09:29;2.65;;;2.08;;
52868;SDS011;39100;53.480;6.158;2023-06-22T05:11:55;3.38;;;2.00;;
52868;SDS011;39100;53.480;6.158;2023-06-22T05:14:27;2.00;;;1.80;;
52868;SDS011;39100;53.480;6.158;2023-06-22T05:16:52;2.63;;;1.80;;
52868;SDS011;39100;53.480;6.158;2023-06-22T05:19:18;2.55;;;2.05;;
52868;SDS011;39100;53.480;6.158;2023-06-22T05:21:43;3.33;;;2.40;;
52868;SDS011;39100;53.480;6.158;2023-06-22T05:24:09;4.10;;;3.03;;
52868;SDS011;39100;53.480;6.158;2023-06-22T05:26:34;4.78;;;3.17;;
52868;SDS011;39100;53.480;6.158;2023-06-22T05:29:01;4.13;;;2.67;;
52868;SDS011;39100;53.480;6.158;2023-06-22T05:31:27;4.95;;;2.90;;
52868;SDS011;39100;53.480;6.158;2023-06-22T05:33:54;3.63;;;2.70;;
52868;SDS011;39100;53.480;6.158;2023-06-22T05:36:20;5.22;;;3.03;;
52868;SDS011;39100;53.480;6.158;2023-06-22T05:38:50;4.25;;;3.28;;
52868;SDS011;39100;53.480;6.158;2023-06-22T05:41:18;7.68;;;4.20;;
52868;SDS011;39100;53.480;6.158;2023-06-22T05:43:44;4.90;;;3.83;;
52868;SDS011;39100;53.480;6.158;2023-06-22T05:46:10;5.13;;;3.40;;
52868;SDS011;39100;53.480;6.158;2023-06-22T05:48:35;6.78;;;4.38;;
52868;SDS011;39100;53.480;6.158;2023-06-22T05:51:04;6.30;;;4.45;;
52868;SDS011;39100;53.480;6.158;2023-06-22T05:53:29;5.80;;;4.20;;
52868;SDS011;39100;53.480;6.158;2023-06-22T05:55:55;5.25;;;4.20;;
52868;SDS011;39100;53.480;6.158;2023-06-22T05:58:20;3.67;;;2.97;;
52868;SDS011;39100;53.480;6.158;2023-06-22T06:00:46;3.75;;;2.60;;
52868;SDS011;39100;53.480;6.158;2023-06-22T06:03:12;6.60;;;4.38;;
52868;SDS011;39100;53.480;6.158;2023-06-22T06:05:37;5.78;;;4.40;;
52868;SDS011;39100;53.480;6.158;2023-06-22T06:08:04;5.50;;;3.78;;
52868;SDS011;39100;53.480;6.158;2023-06-22T06:10:31;6.60;;;4.25;;
52868;SDS011;39100;53.480;6.158;2023-06-22T06:12:58;6.82;;;3.97;;
52868;SDS011;39100;53.480;6.158;2023-06-22T06:15:24;10.15;;;5.18;;
52868;SDS011;39100;53.480;6.158;2023-06-22T06:17:50;6.45;;;4.55;;
52868;SDS011;39100;53.480;6.158;2023-06-22T06:20:19;8.43;;;4.80;;
52868;SDS011;39100;53.480;6.158;2023-06-22T06:22:46;4.75;;;3.35;;
52868;SDS011;39100;53.480;6.158;2023-06-22T06:25:11;5.43;;;3.80;;
52868;SDS011;39100;53.480;6.158;2023-06-22T06:27:41;5.90;;;4.40;;
52868;SDS011;39100;53.480;6.158;2023-06-22T06:30:14;6.47;;;4.22;;
52868;SDS011;39100;53.480;6.158;2023-06-22T06:32:42;4.40;;;3.03;;
52868;SDS011;39100;53.480;6.158;2023-06-22T06:35:10;4.20;;;3.70;;
52868;SDS011;39100;53.480;6.158;2023-06-22T06:37:37;5.43;;;3.47;;
52868;SDS011;39100;53.480;6.158;2023-06-22T06:40:05;4.78;;;3.30;;
52868;SDS011;39100;53.480;6.158;2023-06-22T06:42:36;5.72;;;3.53;;
52868;SDS011;39100;53.480;6.158;2023-06-22T06:45:04;5.13;;;4.00;;
52868;SDS011;39100;53.480;6.158;2023-06-22T06:47:30;5.28;;;3.38;;
52868;SDS011;39100;53.480;6.158;2023-06-22T06:49:55;4.20;;;3.25;;
52868;SDS011;39100;53.480;6.158;2023-06-22T06:52:21;6.30;;;4.13;;
52868;SDS011;39100;53.480;6.158;2023-06-22T06:54:47;7.07;;;3.95;;
52868;SDS011;39100;53.480;6.158;2023-06-22T06:57:12;5.20;;;3.70;;
52868;SDS011;39100;53.480;6.158;2023-06-22T06:59:38;9.25;;;3.40;;
52868;SDS011;39100;53.480;6.158;2023-06-22T07:02:04;3.90;;;3.05;;
52868;SDS011;39100;53.480;6.158;2023-06-22T07:04:30;3.38;;;2.67;;
52868;SDS011;39100;53.480;6.158;2023-06-22T07:06:55;2.75;;;2.40;;
52868;SDS011;39100;53.480;6.158;2023-06-22T07:09:21;4.05;;;2.70;;
52868;SDS011;39100;53.480;6.158;2023-06-22T07:11:46;3.92;;;3.15;;
52868;SDS011;39100;53.480;6.158;2023-06-22T07:14:12;4.10;;;2.65;;
52868;SDS011;39100;53.480;6.158;2023-06-22T07:16:38;4.97;;;3.35;;
52868;SDS011;39100;53.480;6.158;2023-06-22T07:19:03;5.82;;;3.85;;
52868;SDS011;39100;53.480;6.158;2023-06-22T07:21:29;4.72;;;4.00;;
52868;SDS011;39100;53.480;6.158;2023-06-22T07:23:54;5.45;;;3.13;;
52868;SDS011;39100;53.480;6.158;2023-06-22T07:26:21;7.63;;;4.15;;
52868;SDS011;39100;53.480;6.158;2023-06-22T07:28:47;9.32;;;5.13;;
52868;SDS011;39100;53.480;6.158;2023-06-22T07:31:12;5.90;;;4.47;;
52868;SDS011;39100;53.480;6.158;2023-06-22T07:33:38;5.85;;;4.47;;
52868;SDS011;39100;53.480;6.158;2023-06-22T07:36:03;5.57;;;4.07;;
52868;SDS011;39100;53.480;6.158;2023-06-22T07:38:32;6.72;;;3.67;;
52868;SDS011;39100;53.480;6.158;2023-06-22T07:40:59;4.63;;;2.92;;
52868;SDS011;39100;53.480;6.158;2023-06-22T07:43:24;4.72;;;3.75;;
52868;SDS011;39100;53.480;6.158;2023-06-22T07:45:50;5.63;;;4.07;;
52868;SDS011;39100;53.480;6.158;2023-06-22T07:48:22;4.38;;;3.30;;
52868;SDS011;39100;53.480;6.158;2023-06-22T07:50:47;3.85;;;2.50;;
52868;SDS011;39100;53.480;6.158;2023-06-22T07:53:14;5.00;;;2.63;;
52868;SDS011;39100;53.480;6.158;2023-06-22T07:55:40;5.10;;;2.35;;
52868;SDS011;39100;53.480;6.158;2023-06-22T07:58:05;4.50;;;2.72;;
52868;SDS011;39100;53.480;6.158;2023-06-22T08:00:31;2.38;;;2.17;;
52868;SDS011;39100;53.480;6.158;2023-06-22T08:02:58;2.67;;;2.47;;
52868;SDS011;39100;53.480;6.158;2023-06-22T08:05:24;3.17;;;2.45;;
52868;SDS011;39100;53.480;6.158;2023-06-22T08:07:49;3.55;;;2.58;;
52868;SDS011;39100;53.480;6.158;2023-06-22T08:10:15;3.25;;;2.42;;
52868;SDS011;39100;53.480;6.158;2023-06-22T08:12:41;4.32;;;2.10;;
52868;SDS011;39100;53.480;6.158;2023-06-22T08:15:07;3.13;;;2.78;;
52868;SDS011;39100;53.480;6.158;2023-06-22T08:17:33;3.92;;;2.10;;
52868;SDS011;39100;53.480;6.158;2023-06-22T08:19:59;2.95;;;2.58;;
52868;SDS011;39100;53.480;6.158;2023-06-22T08:22:24;2.83;;;2.53;;
52868;SDS011;39100;53.480;6.158;2023-06-22T08:24:50;2.63;;;2.15;;
52868;SDS011;39100;53.480;6.158;2023-06-22T08:27:15;2.92;;;1.90;;
52868;SDS011;39100;53.480;6.158;2023-06-22T08:29:43;4.00;;;2.60;;
52868;SDS011;39100;53.480;6.158;2023-06-22T08:32:10;2.58;;;2.38;;
52868;SDS011;39100;53.480;6.158;2023-06-22T08:34:36;2.47;;;2.20;;
52868;SDS011;39100;53.480;6.158;2023-06-22T08:37:02;2.97;;;2.45;;
52868;SDS011;39100;53.480;6.158;2023-06-22T08:39:31;3.78;;;2.40;;
52868;SDS011;39100;53.480;6.158;2023-06-22T08:41:57;3.42;;;1.77;;
52868;SDS011;39100;53.480;6.158;2023-06-22T08:44:22;2.25;;;2.00;;
52868;SDS011;39100;53.480;6.158;2023-06-22T08:46:48;3.22;;;2.47;;
52868;SDS011;39100;53.480;6.158;2023-06-22T08:49:13;2.47;;;2.20;;
52868;SDS011;39100;53.480;6.158;2023-06-22T08:51:40;2.60;;;2.40;;
52868;SDS011;39100;53.480;6.158;2023-06-22T08:54:05;2.22;;;1.90;;
52868;SDS011;39100;53.480;6.158;2023-06-22T08:56:31;3.13;;;2.28;;
52868;SDS011;39100;53.480;6.158;2023-06-22T08:58:56;2.35;;;1.42;;
52868;SDS011;39100;53.480;6.158;2023-06-22T09:01:22;2.50;;;2.30;;
52868;SDS011;39100;53.480;6.158;2023-06-22T09:03:47;1.92;;;1.75;;
52868;SDS011;39100;53.480;6.158;2023-06-22T09:06:19;2.50;;;2.00;;
52868;SDS011;39100;53.480;6.158;2023-06-22T09:08:46;1.80;;;1.70;;
52868;SDS011;39100;53.480;6.158;2023-06-22T09:11:12;2.42;;;2.00;;
52868;SDS011;39100;53.480;6.158;2023-06-22T09:13:37;2.30;;;1.90;;
52868;SDS011;39100;53.480;6.158;2023-06-22T09:16:03;2.13;;;1.92;;
52868;SDS011;39100;53.480;6.158;2023-06-22T09:18:29;4.00;;;2.38;;
52868;SDS011;39100;53.480;6.158;2023-06-22T09:20:54;2.75;;;2.15;;
52868;SDS011;39100;53.480;6.158;2023-06-22T09:23:20;3.92;;;2.28;;
52868;SDS011;39100;53.480;6.158;2023-06-22T09:25:46;3.42;;;1.80;;
52868;SDS011;39100;53.480;6.158;2023-06-22T09:28:13;2.97;;;2.25;;
52868;SDS011;39100;53.480;6.158;2023-06-22T09:30:42;2.50;;;2.17;;
52868;SDS011;39100;53.480;6.158;2023-06-22T09:33:09;3.78;;;1.75;;
52868;SDS011;39100;53.480;6.158;2023-06-22T09:35:34;2.75;;;2.17;;
52868;SDS011;39100;53.480;6.158;2023-06-22T09:38:00;4.45;;;2.03;;
52868;SDS011;39100;53.480;6.158;2023-06-22T09:40:25;2.72;;;2.03;;
52868;SDS011;39100;53.480;6.158;2023-06-22T09:42:51;4.97;;;2.05;;
52868;SDS011;39100;53.480;6.158;2023-06-22T09:45:16;1.95;;;1.75;;
52868;SDS011;39100;53.480;6.158;2023-06-22T09:47:42;2.65;;;1.85;;
52868;SDS011;39100;53.480;6.158;2023-06-22T09:50:07;1.73;;;1.63;;
52868;SDS011;39100;53.480;6.158;2023-06-22T09:52:33;2.45;;;1.60;;
52868;SDS011;39100;53.480;6.158;2023-06-22T09:54:59;2.03;;;1.90;;
52868;SDS011;39100;53.480;6.158;2023-06-22T09:57:24;3.13;;;2.45;;
52868;SDS011;39100;53.480;6.158;2023-06-22T09:59:50;3.08;;;1.80;;
52868;SDS011;39100;53.480;6.158;2023-06-22T10:02:15;3.08;;;2.42;;
52868;SDS011;39100;53.480;6.158;2023-06-22T10:04:42;2.08;;;1.70;;
52868;SDS011;39100;53.480;6.158;2023-06-22T10:07:07;2.08;;;1.83;;
52868;SDS011;39100;53.480;6.158;2023-06-22T10:09:33;1.77;;;1.42;;
52868;SDS011;39100;53.480;6.158;2023-06-22T10:11:58;4.53;;;1.90;;
52868;SDS011;39100;53.480;6.158;2023-06-22T10:14:24;2.38;;;2.17;;
52868;SDS011;39100;53.480;6.158;2023-06-22T10:16:51;2.50;;;1.98;;
52868;SDS011;39100;53.480;6.158;2023-06-22T10:19:17;2.95;;;1.80;;
52868;SDS011;39100;53.480;6.158;2023-06-22T10:21:43;2.83;;;1.85;;
52868;SDS011;39100;53.480;6.158;2023-06-22T10:24:08;2.30;;;1.80;;
52868;SDS011;39100;53.480;6.158;2023-06-22T10:26:34;2.20;;;1.70;;
52868;SDS011;39100;53.480;6.158;2023-06-22T10:29:01;1.75;;;1.65;;
52868;SDS011;39100;53.480;6.158;2023-06-22T10:31:28;5.13;;;1.60;;
52868;SDS011;39100;53.480;6.158;2023-06-22T10:33:54;2.83;;;1.58;;
52868;SDS011;39100;53.480;6.158;2023-06-22T10:36:21;1.85;;;1.60;;
52868;SDS011;39100;53.480;6.158;2023-06-22T10:38:47;1.38;;;1.10;;
52868;SDS011;39100;53.480;6.158;2023-06-22T10:41:13;2.40;;;1.50;;
52868;SDS011;39100;53.480;6.158;2023-06-22T10:43:39;1.75;;;1.30;;
52868;SDS011;39100;53.480;6.158;2023-06-22T10:46:06;1.50;;;1.40;;
52868;SDS011;39100;53.480;6.158;2023-06-22T10:48:31;2.42;;;1.30;;
52868;SDS011;39100;53.480;6.158;2023-06-22T10:50:57;4.10;;;1.75;;
52868;SDS011;39100;53.480;6.158;2023-06-22T10:53:23;1.67;;;1.38;;
52868;SDS011;39100;53.480;6.158;2023-06-22T10:55:48;1.58;;;1.33;;
52868;SDS011;39100;53.480;6.158;2023-06-22T10:58:14;1.65;;;1.23;;
52868;SDS011;39100;53.480;6.158;2023-06-22T11:00:40;1.25;;;0.80;;
52868;SDS011;39100;53.480;6.158;2023-06-22T11:03:05;1.60;;;1.20;;
52868;SDS011;39100;53.480;6.158;2023-06-22T11:05:31;1.25;;;1.13;;
52868;SDS011;39100;53.480;6.158;2023-06-22T11:07:57;1.75;;;1.30;;
52868;SDS011;39100;53.480;6.158;2023-06-22T11:10:22;2.15;;;1.67;;
52868;SDS011;39100;53.480;6.158;2023-06-22T11:12:48;1.52;;;1.40;;
52868;SDS011;39100;53.480;6.158;2023-06-22T11:15:13;1.75;;;1.52;;
52868;SDS011;39100;53.480;6.158;2023-06-22T11:17:39;2.00;;;1.27;;
52868;SDS011;39100;53.480;6.158;2023-06-22T11:20:05;2.53;;;1.10;;
52868;SDS011;39100;53.480;6.158;2023-06-22T11:22:36;1.45;;;1.35;;
52868;SDS011;39100;53.480;6.158;2023-06-22T11:25:02;3.63;;;1.20;;
52868;SDS011;39100;53.480;6.158;2023-06-22T11:27:28;1.55;;;0.88;;
52868;SDS011;39100;53.480;6.158;2023-06-22T11:29:54;1.58;;;1.00;;
52868;SDS011;39100;53.480;6.158;2023-06-22T11:32:20;1.58;;;1.20;;
52868;SDS011;39100;53.480;6.158;2023-06-22T11:34:45;1.42;;;1.08;;
52868;SDS011;39100;53.480;6.158;2023-06-22T11:37:11;0.80;;;0.60;;
52868;SDS011;39100;53.480;6.158;2023-06-22T11:39:37;2.45;;;0.88;;
52868;SDS011;39100;53.480;6.158;2023-06-22T11:42:02;2.30;;;1.17;;
52868;SDS011;39100;53.480;6.158;2023-06-22T11:44:28;2.65;;;0.80;;
52868;SDS011;39100;53.480;6.158;2023-06-22T11:46:53;1.00;;;0.90;;
52868;SDS011;39100;53.480;6.158;2023-06-22T11:49:19;1.90;;;0.80;;
52868;SDS011;39100;53.480;6.158;2023-06-22T11:51:44;1.42;;;1.20;;
52868;SDS011;39100;53.480;6.158;2023-06-22T11:54:10;0.95;;;0.60;;
52868;SDS011;39100;53.480;6.158;2023-06-22T11:56:36;1.95;;;0.90;;
52868;SDS011;39100;53.480;6.158;2023-06-22T11:59:01;1.17;;;1.08;;
52868;SDS011;39100;53.480;6.158;2023-06-22T12:01:27;1.88;;;0.90;;
52868;SDS011;39100;53.480;6.158;2023-06-22T12:03:52;3.08;;;0.80;;
52868;SDS011;39100;53.480;6.158;2023-06-22T12:06:18;2.58;;;0.93;;
52868;SDS011;39100;53.480;6.158;2023-06-22T12:08:43;1.33;;;0.90;;
52868;SDS011;39100;53.480;6.158;2023-06-22T12:11:09;1.40;;;1.20;;
52868;SDS011;39100;53.480;6.158;2023-06-22T12:13:34;3.47;;;0.80;;
52868;SDS011;39100;53.480;6.158;2023-06-22T12:16:00;1.67;;;1.17;;
52868;SDS011;39100;53.480;6.158;2023-06-22T12:18:26;1.20;;;0.50;;
52868;SDS011;39100;53.480;6.158;2023-06-22T12:20:51;0.88;;;0.70;;
52868;SDS011;39100;53.480;6.158;2023-06-22T12:23:17;1.27;;;0.85;;
52868;SDS011;39100;53.480;6.158;2023-06-22T12:25:44;1.65;;;0.80;;
52868;SDS011;39100;53.480;6.158;2023-06-22T12:28:10;1.70;;;1.23;;
52868;SDS011;39100;53.480;6.158;2023-06-22T12:30:35;1.20;;;0.60;;
52868;SDS011;39100;53.480;6.158;2023-06-22T12:33:01;0.95;;;0.68;;
52868;SDS011;39100;53.480;6.158;2023-06-22T12:35:26;0.73;;;0.63;;
52868;SDS011;39100;53.480;6.158;2023-06-22T12:37:52;0.95;;;0.65;;
52868;SDS011;39100;53.480;6.158;2023-06-22T12:40:18;0.50;;;0.50;;
52868;SDS011;39100;53.480;6.158;2023-06-22T12:42:44;1.73;;;0.80;;
52868;SDS011;39100;53.480;6.158;2023-06-22T12:45:10;1.42;;;0.80;;
52868;SDS011;39100;53.480;6.158;2023-06-22T12:47:35;1.00;;;0.82;;
52868;SDS011;39100;53.480;6.158;2023-06-22T12:50:01;0.85;;;0.85;;
52868;SDS011;39100;53.480;6.158;2023-06-22T12:52:29;1.98;;;0.95;;
52868;SDS011;39100;53.480;6.158;2023-06-22T12:54:57;1.88;;;0.98;;
52868;SDS011;39100;53.480;6.158;2023-06-22T12:57:22;0.75;;;0.68;;
52868;SDS011;39100;53.480;6.158;2023-06-22T12:59:48;1.60;;;0.70;;
52868;SDS011;39100;53.480;6.158;2023-06-22T13:02:14;2.38;;;0.77;;
52868;SDS011;39100;53.480;6.158;2023-06-22T13:04:40;1.58;;;0.70;;
52868;SDS011;39100;53.480;6.158;2023-06-22T13:07:05;2.10;;;0.57;;
52868;SDS011;39100;53.480;6.158;2023-06-22T13:09:31;1.00;;;0.50;;
52868;SDS011;39100;53.480;6.158;2023-06-22T13:11:57;1.20;;;0.80;;
52868;SDS011;39100;53.480;6.158;2023-06-22T13:14:23;0.60;;;0.60;;
52868;SDS011;39100;53.480;6.158;2023-06-22T13:16:49;2.30;;;0.82;;
52868;SDS011;39100;53.480;6.158;2023-06-22T13:19:15;2.85;;;0.80;;
52868;SDS011;39100;53.480;6.158;2023-06-22T13:21:40;1.23;;;0.80;;
52868;SDS011;39100;53.480;6.158;2023-06-22T13:24:06;1.48;;;1.00;;
52868;SDS011;39100;53.480;6.158;2023-06-22T13:26:32;1.27;;;0.60;;
52868;SDS011;39100;53.480;6.158;2023-06-22T13:28:58;1.13;;;0.70;;
52868;SDS011;39100;53.480;6.158;2023-06-22T13:31:24;1.23;;;0.85;;
52868;SDS011;39100;53.480;6.158;2023-06-22T13:33:49;0.80;;;0.60;;
52868;SDS011;39100;53.480;6.158;2023-06-22T13:36:17;1.00;;;0.60;;
52868;SDS011;39100;53.480;6.158;2023-06-22T13:38:43;2.88;;;0.80;;
52868;SDS011;39100;53.480;6.158;2023-06-22T13:41:08;1.92;;;0.70;;
52868;SDS011;39100;53.480;6.158;2023-06-22T13:43:34;1.00;;;0.90;;
52868;SDS011;39100;53.480;6.158;2023-06-22T13:45:59;1.33;;;0.65;;
52868;SDS011;39100;53.480;6.158;2023-06-22T13:48:25;0.80;;;0.70;;
52868;SDS011;39100;53.480;6.158;2023-06-22T13:50:51;1.08;;;0.50;;
52868;SDS011;39100;53.480;6.158;2023-06-22T13:53:17;1.13;;;0.60;;
52868;SDS011;39100;53.480;6.158;2023-06-22T13:55:43;1.83;;;0.95;;
52868;SDS011;39100;53.480;6.158;2023-06-22T13:58:08;0.73;;;0.55;;
52868;SDS011;39100;53.480;6.158;2023-06-22T14:00:34;0.75;;;0.75;;
52868;SDS011;39100;53.480;6.158;2023-06-22T14:02:59;1.67;;;0.90;;
52868;SDS011;39100;53.480;6.158;2023-06-22T14:05:25;0.80;;;0.60;;
52868;SDS011;39100;53.480;6.158;2023-06-22T14:07:51;1.58;;;0.82;;
52868;SDS011;39100;53.480;6.158;2023-06-22T14:10:17;1.27;;;0.88;;
52868;SDS011;39100;53.480;6.158;2023-06-22T14:12:42;2.08;;;0.90;;
52868;SDS011;39100;53.480;6.158;2023-06-22T14:15:08;0.60;;;0.52;;
52868;SDS011;39100;53.480;6.158;2023-06-22T14:17:34;0.75;;;0.60;;
52868;SDS011;39100;53.480;6.158;2023-06-22T14:19:59;1.63;;;0.70;;
52868;SDS011;39100;53.480;6.158;2023-06-22T14:22:25;1.42;;;0.80;;
52868;SDS011;39100;53.480;6.158;2023-06-22T14:24:52;1.15;;;0.90;;
52868;SDS011;39100;53.480;6.158;2023-06-22T14:27:17;1.13;;;0.75;;
52868;SDS011;39100;53.480;6.158;2023-06-22T14:29:43;1.02;;;0.93;;
52868;SDS011;39100;53.480;6.158;2023-06-22T14:32:08;0.82;;;0.68;;
52868;SDS011;39100;53.480;6.158;2023-06-22T14:34:34;1.05;;;0.90;;
52868;SDS011;39100;53.480;6.158;2023-06-22T14:37:01;2.83;;;0.90;;
52868;SDS011;39100;53.480;6.158;2023-06-22T14:39:27;2.03;;;1.25;;
52868;SDS011;39100;53.480;6.158;2023-06-22T14:41:53;2.92;;;1.00;;
52868;SDS011;39100;53.480;6.158;2023-06-22T14:44:18;0.95;;;0.65;;
52868;SDS011;39100;53.480;6.158;2023-06-22T14:46:44;1.05;;;1.00;;